createdAt,value
2023-05-25T00:00:57.500Z,47.74
2023-05-25T00:03:28.043Z,48.26
2023-05-25T00:05:55.261Z,48.87
2023-05-25T00:08:21.847Z,48.54
2023-05-25T00:10:48.459Z,48.61
2023-05-25T00:13:15.054Z,48.67
2023-05-25T00:15:41.788Z,48.10
2023-05-25T00:18:08.604Z,48.49
2023-05-25T00:20:35.494Z,48.53
2023-05-25T00:23:05.034Z,48.13
2023-05-25T00:25:31.762Z,47.81
2023-05-25T00:27:58.305Z,49.47
2023-05-25T00:30:25.051Z,49.43
2023-05-25T00:32:51.688Z,49.45
2023-05-25T00:35:18.388Z,49.76
2023-05-25T00:37:45.439Z,49.51
2023-05-25T00:40:17.998Z,48.41
2023-05-25T00:42:44.731Z,48.71
2023-05-25T00:45:12.250Z,48.45
2023-05-25T00:47:44.259Z,48.97
2023-05-25T00:50:15.287Z,48.88
2023-05-25T00:52:42.064Z,48.84
2023-05-25T00:55:12.027Z,48.80
2023-05-25T00:57:41.442Z,48.46
2023-05-25T01:00:11.344Z,48.78
2023-05-25T01:02:40.883Z,49.04
2023-05-25T01:09:44.471Z,48.26
2023-05-25T01:12:14.963Z,49.07
2023-05-25T01:14:42.109Z,49.31
2023-05-25T01:17:10.271Z,49.35
2023-05-25T01:19:40.810Z,49.35
2023-05-25T01:22:38.346Z,48.76
2023-05-25T01:25:22.919Z,48.76
2023-05-25T01:28:05.762Z,48.99
2023-05-25T01:30:33.095Z,49.16
2023-05-25T01:33:00.953Z,49.08
2023-05-25T01:35:28.418Z,49.00
2023-05-25T01:37:55.978Z,48.65
2023-05-25T01:40:22.577Z,49.19
2023-05-25T01:42:49.083Z,48.75
2023-05-25T01:45:16.695Z,48.87
2023-05-25T01:47:52.537Z,48.68
2023-05-25T01:50:54.730Z,47.88
2023-05-25T01:53:30.897Z,48.26
2023-05-25T01:56:08.408Z,48.36
2023-05-25T01:58:40.507Z,48.50
2023-05-25T02:01:09.261Z,48.21
2023-05-25T02:03:41.067Z,48.35
2023-05-25T02:06:08.643Z,47.76
2023-05-25T02:08:35.245Z,48.18
2023-05-25T02:11:02.049Z,47.24
2023-05-25T02:13:28.721Z,47.89
2023-05-25T02:15:55.551Z,48.29
2023-05-25T02:18:22.191Z,48.20
2023-05-25T02:20:49.095Z,48.38
2023-05-25T02:23:18.467Z,47.88
2023-05-25T02:25:45.404Z,47.65
2023-05-25T02:28:12.316Z,48.04
2023-05-25T02:30:39.100Z,48.32
2023-05-25T02:33:05.729Z,48.58
2023-05-25T02:35:32.437Z,48.00
2023-05-25T02:37:58.953Z,47.63
2023-05-25T02:40:25.656Z,47.76
2023-05-25T02:42:53.235Z,47.06
2023-05-25T02:45:19.885Z,47.40
2023-05-25T02:47:46.499Z,47.37
2023-05-25T02:50:13.135Z,47.69
2023-05-25T02:52:44.207Z,48.07
2023-05-25T02:55:13.155Z,48.12
2023-05-25T02:57:40.915Z,48.17
2023-05-25T03:00:11.686Z,48.67
2023-05-25T03:02:38.613Z,47.54
2023-05-25T03:05:05.658Z,47.88
2023-05-25T03:07:33.872Z,48.01
2023-05-25T03:10:00.592Z,47.94
2023-05-25T03:12:27.290Z,48.27
2023-05-25T03:14:54.058Z,48.68
2023-05-25T03:17:22.081Z,48.62
2023-05-25T03:19:48.730Z,49.08
2023-05-25T03:22:15.604Z,49.31
2023-05-25T03:24:42.146Z,49.08
2023-05-25T03:27:09.748Z,49.71
2023-05-25T03:29:36.377Z,49.55
2023-05-25T03:32:03.336Z,49.77
2023-05-25T03:34:34.606Z,49.11
2023-05-25T03:37:02.035Z,48.46
2023-05-25T03:39:28.753Z,48.45
2023-05-25T03:41:55.992Z,48.91
2023-05-25T03:44:23.437Z,48.81
2023-05-25T03:46:50.078Z,48.86
2023-05-25T03:49:16.778Z,48.79
2023-05-25T03:51:44.276Z,48.46
2023-05-25T03:54:12.454Z,48.19
2023-05-25T03:56:39.013Z,47.56
2023-05-25T03:59:06.144Z,47.65
2023-05-25T04:01:32.770Z,47.39
2023-05-25T04:03:59.617Z,48.46
2023-05-25T04:06:26.299Z,48.13
2023-05-25T04:08:52.960Z,47.88
2023-05-25T04:11:20.045Z,46.98
2023-05-25T04:13:47.272Z,47.93
2023-05-25T04:16:14.521Z,47.38
2023-05-25T04:18:41.622Z,47.89
2023-05-25T04:21:08.271Z,47.78
2023-05-25T04:23:35.137Z,48.04
2023-05-25T04:26:03.289Z,48.21
2023-05-25T04:28:29.917Z,48.16
2023-05-25T04:31:09.007Z,48.37
2023-05-25T04:33:47.325Z,48.32
2023-05-25T04:36:24.602Z,48.53
2023-05-25T04:38:52.064Z,48.58
2023-05-25T04:41:18.993Z,48.62
2023-05-25T04:44:05.797Z,49.06
2023-05-25T04:46:38.800Z,48.85
2023-05-25T04:49:08.266Z,48.61
2023-05-25T04:51:36.024Z,49.37
2023-05-25T04:54:02.900Z,48.12
2023-05-25T04:56:29.686Z,49.03
2023-05-25T04:58:57.257Z,49.46
2023-05-25T05:01:24.358Z,49.34
2023-05-25T05:03:52.758Z,49.40
2023-05-25T05:06:19.605Z,49.73
2023-05-25T05:08:46.451Z,49.42
2023-05-25T05:11:13.248Z,49.58
2023-05-25T05:13:39.813Z,49.85
2023-05-25T05:16:06.798Z,50.14
2023-05-25T05:18:33.380Z,49.99
2023-05-25T05:21:00.056Z,50.20
2023-05-25T05:23:26.948Z,50.05
2023-05-25T05:25:54.497Z,49.61
2023-05-25T05:28:21.980Z,50.20
2023-05-25T05:30:48.777Z,50.30
2023-05-25T05:33:15.472Z,49.93
2023-05-25T05:35:46.958Z,49.04
2023-05-25T05:38:21.135Z,49.35
2023-05-25T05:40:48.114Z,49.48
2023-05-25T05:43:19.360Z,49.31
2023-05-25T05:45:46.146Z,49.15
2023-05-25T05:48:13.138Z,49.29
2023-05-25T05:50:42.075Z,49.48
2023-05-25T05:53:09.841Z,48.67
2023-05-25T05:55:36.837Z,48.55
2023-05-25T05:58:03.514Z,47.98
2023-05-25T06:00:30.175Z,47.52
2023-05-25T06:02:57.102Z,47.13
2023-05-25T06:05:26.677Z,47.47
2023-05-25T06:07:54.931Z,48.03
2023-05-25T06:10:22.538Z,47.49
2023-05-25T06:12:49.353Z,46.98
2023-05-25T06:15:16.272Z,47.85
2023-05-25T06:17:43.762Z,48.25
2023-05-25T06:20:11.395Z,48.29
2023-05-25T06:22:38.092Z,46.97
2023-05-25T06:25:05.042Z,47.36
2023-05-25T06:27:31.601Z,47.12
2023-05-25T06:29:58.148Z,46.44
2023-05-25T06:32:24.776Z,46.44
2023-05-25T06:34:51.324Z,46.29
2023-05-25T06:37:19.197Z,46.63
2023-05-25T06:39:46.283Z,46.62
2023-05-25T06:42:12.885Z,46.07
2023-05-25T06:44:50.153Z,45.93
2023-05-25T06:47:17.129Z,46.05
2023-05-25T06:49:43.706Z,46.06
2023-05-25T06:52:10.452Z,46.32
2023-05-25T06:54:37.117Z,46.11
2023-05-25T06:57:03.654Z,45.86
2023-05-25T06:59:30.946Z,45.67
2023-05-25T07:01:58.994Z,45.55
2023-05-25T07:04:25.560Z,46.42
2023-05-25T07:06:52.508Z,45.29
2023-05-25T07:09:19.200Z,45.96
2023-05-25T07:11:46.238Z,45.89
2023-05-25T07:14:13.064Z,45.82
2023-05-25T07:16:39.720Z,45.89
2023-05-25T07:19:06.451Z,46.33
2023-05-25T07:21:33.605Z,46.43
2023-05-25T07:24:00.596Z,46.06
2023-05-25T07:26:27.829Z,46.88
2023-05-25T07:28:54.568Z,46.62
2023-05-25T07:31:21.325Z,46.69
2023-05-25T07:33:47.961Z,46.27
2023-05-25T07:36:14.533Z,46.49
2023-05-25T07:38:41.158Z,46.16
2023-05-25T07:41:07.961Z,47.22
2023-05-25T07:43:34.742Z,45.95
2023-05-25T07:46:02.379Z,46.45
2023-05-25T07:48:29.036Z,46.42
2023-05-25T07:50:55.857Z,46.11
2023-05-25T07:53:22.668Z,46.58
2023-05-25T07:55:49.324Z,46.07
2023-05-25T07:58:16.009Z,46.45
2023-05-25T08:00:43.768Z,44.63
2023-05-25T08:03:10.924Z,45.17
2023-05-25T08:05:37.713Z,44.62
2023-05-25T08:08:04.358Z,44.65
2023-05-25T08:10:33.881Z,45.04
2023-05-25T08:13:00.658Z,45.25
2023-05-25T08:15:27.221Z,45.49
2023-05-25T08:17:53.992Z,45.14
2023-05-25T08:20:20.659Z,44.49
2023-05-25T08:22:47.413Z,44.59
2023-05-25T08:25:14.012Z,44.88
2023-05-25T08:27:40.631Z,44.96
2023-05-25T08:30:08.018Z,45.18
2023-05-25T08:32:34.673Z,45.09
2023-05-25T08:35:01.924Z,44.40
2023-05-25T08:37:29.250Z,44.14
2023-05-25T08:39:55.918Z,44.02
2023-05-25T08:42:23.747Z,44.19
2023-05-25T08:44:50.499Z,44.10
2023-05-25T08:47:17.624Z,44.20
2023-05-25T08:49:45.393Z,44.01
2023-05-25T08:52:14.885Z,43.39
2023-05-25T08:54:44.317Z,44.54
2023-05-25T08:57:13.848Z,44.26
2023-05-25T08:59:50.547Z,43.99
2023-05-25T09:02:27.043Z,44.64
2023-05-25T09:04:54.912Z,45.07
2023-05-25T09:07:21.827Z,44.51
2023-05-25T09:09:48.985Z,44.32
2023-05-25T09:12:16.135Z,44.55
2023-05-25T09:14:45.514Z,44.42
2023-05-25T09:17:16.763Z,44.92
2023-05-25T09:19:44.116Z,44.84
2023-05-25T09:22:15.621Z,45.14
2023-05-25T09:24:44.312Z,44.65
2023-05-25T09:27:12.862Z,44.52
2023-05-25T09:29:39.514Z,44.10
2023-05-25T09:32:06.804Z,44.33
2023-05-25T09:34:34.461Z,45.25
2023-05-25T09:37:11.623Z,44.21
2023-05-25T09:39:39.683Z,43.92
2023-05-25T09:42:06.557Z,44.43
2023-05-25T09:44:33.225Z,44.13
2023-05-25T09:46:59.856Z,43.96
2023-05-25T09:49:27.109Z,43.97
2023-05-25T09:51:53.636Z,44.17
2023-05-25T09:54:22.808Z,44.84
2023-05-25T09:56:49.551Z,44.77
2023-05-25T09:59:16.284Z,45.24
2023-05-25T10:01:44.341Z,45.47
2023-05-25T10:04:11.418Z,44.87
2023-05-25T10:06:39.324Z,44.35
2023-05-25T10:09:06.797Z,44.52
2023-05-25T10:11:37.443Z,45.04
2023-05-25T10:14:07.317Z,44.61
2023-05-25T10:16:34.779Z,44.12
2023-05-25T10:19:10.007Z,44.73
2023-05-25T10:21:39.277Z,44.61
2023-05-25T10:24:24.439Z,45.08
2023-05-25T10:26:54.466Z,45.29
2023-05-25T10:29:24.818Z,44.07
2023-05-25T10:31:53.120Z,44.63
2023-05-25T10:34:21.768Z,44.43
2023-05-25T10:36:48.992Z,44.46
2023-05-25T10:39:16.081Z,45.29
2023-05-25T10:41:43.624Z,44.94
2023-05-25T10:44:11.096Z,44.68
2023-05-25T10:46:37.845Z,44.94
2023-05-25T10:49:04.388Z,44.70
2023-05-25T10:51:40.654Z,44.71
2023-05-25T10:54:07.641Z,44.45
2023-05-25T10:56:34.204Z,44.05
2023-05-25T10:59:01.984Z,44.22
2023-05-25T11:01:33.409Z,44.55
2023-05-25T11:04:09.621Z,43.90
2023-05-25T11:06:44.406Z,44.26
2023-05-25T11:09:27.451Z,44.04
2023-05-25T11:11:56.042Z,43.97
2023-05-25T11:14:33.849Z,44.44
2023-05-25T11:17:15.357Z,43.76
2023-05-25T11:19:51.756Z,43.82
2023-05-25T11:22:23.523Z,43.60
2023-05-25T11:24:53.829Z,43.38
2023-05-25T11:27:26.780Z,43.83
2023-05-25T11:29:54.935Z,43.61
2023-05-25T11:32:22.601Z,43.51
2023-05-25T11:34:52.849Z,42.81
2023-05-25T11:37:21.555Z,42.39
2023-05-25T11:39:52.564Z,42.92
2023-05-25T11:42:21.913Z,42.50
2023-05-25T11:44:48.637Z,42.86
2023-05-25T11:47:19.375Z,42.77
2023-05-25T11:49:47.555Z,41.55
2023-05-25T11:52:15.666Z,41.71
2023-05-25T11:54:42.826Z,42.85
2023-05-25T11:57:19.201Z,40.98
2023-05-25T11:59:53.538Z,41.55
2023-05-25T12:02:21.152Z,42.22
2023-05-25T12:04:59.284Z,41.52
2023-05-25T12:07:27.271Z,42.39
2023-05-25T12:10:06.168Z,42.19
2023-05-25T12:12:49.746Z,41.85
2023-05-25T12:15:24.993Z,42.13
2023-05-25T12:17:53.688Z,41.93
2023-05-25T12:20:21.089Z,40.25
2023-05-25T12:22:48.066Z,40.30
2023-05-25T12:25:19.326Z,41.43
2023-05-25T12:27:46.208Z,40.58
2023-05-25T12:30:12.929Z,40.77
2023-05-25T12:33:04.529Z,41.52
2023-05-25T12:35:45.219Z,40.31
2023-05-25T12:38:21.404Z,41.28
2023-05-25T12:41:04.935Z,38.82
2023-05-25T12:43:42.889Z,39.38
2023-05-25T12:46:09.520Z,40.41
2023-05-25T12:48:36.102Z,40.30
2023-05-25T12:51:02.680Z,38.29
2023-05-25T12:53:30.965Z,38.54
2023-05-25T12:56:04.780Z,38.48
2023-05-25T12:58:31.624Z,39.05
2023-05-25T13:00:58.402Z,39.29
2023-05-25T13:03:24.987Z,38.77
2023-05-25T13:05:51.737Z,39.42
2023-05-25T13:08:18.350Z,39.70
2023-05-25T13:10:48.487Z,39.25
2023-05-25T13:13:15.080Z,39.83
2023-05-25T13:15:41.588Z,40.81
2023-05-25T13:18:08.260Z,38.92
2023-05-25T13:20:36.640Z,39.62
2023-05-25T13:23:03.377Z,38.26
2023-05-25T13:25:30.044Z,38.71
2023-05-25T13:27:59.673Z,38.32
2023-05-25T13:30:26.791Z,38.72
2023-05-25T13:32:53.408Z,37.02
2023-05-25T13:35:37.076Z,37.27
2023-05-25T13:38:03.971Z,37.10
2023-05-25T13:40:30.568Z,37.59
2023-05-25T13:42:57.165Z,37.51
2023-05-25T13:45:23.738Z,37.82
2023-05-25T13:47:50.500Z,37.77
2023-05-25T13:50:17.230Z,37.00
2023-05-25T13:52:43.811Z,37.29
2023-05-25T13:55:10.361Z,35.77
2023-05-25T13:57:37.592Z,35.61
2023-05-25T14:00:05.197Z,35.96
2023-05-25T14:02:34.982Z,37.23
2023-05-25T14:05:01.616Z,36.43
2023-05-25T14:07:28.224Z,37.35
2023-05-25T14:09:54.785Z,36.10
2023-05-25T14:12:21.464Z,36.29
2023-05-25T14:14:47.984Z,36.62
2023-05-25T14:17:14.546Z,38.40
2023-05-25T14:19:41.061Z,37.20
2023-05-25T14:22:13.909Z,37.23
2023-05-25T14:24:41.810Z,36.52
2023-05-25T14:27:08.758Z,35.53
2023-05-25T14:29:35.628Z,35.75
2023-05-25T14:32:02.387Z,35.98
2023-05-25T14:34:29.411Z,37.05
2023-05-25T14:36:56.154Z,37.00
2023-05-25T14:39:22.812Z,37.30
2023-05-25T14:41:49.393Z,38.20
2023-05-25T14:44:16.420Z,37.35
2023-05-25T14:46:42.976Z,36.46
2023-05-25T14:49:09.865Z,37.33
2023-05-25T14:51:36.883Z,37.80
2023-05-25T14:54:05.335Z,36.25
2023-05-25T14:56:31.932Z,36.88
2023-05-25T14:58:58.584Z,37.26
2023-05-25T15:01:25.673Z,36.22
2023-05-25T15:03:52.566Z,35.66
2023-05-25T15:06:19.471Z,36.43
2023-05-25T15:08:46.894Z,36.29
2023-05-25T15:11:13.412Z,37.20
2023-05-25T15:13:40.813Z,36.53
2023-05-25T15:16:11.108Z,37.38
2023-05-25T15:18:37.775Z,38.37
2023-05-25T15:21:04.474Z,37.12
2023-05-25T15:23:31.965Z,37.16
2023-05-25T15:26:02.993Z,37.31
2023-05-25T15:28:30.548Z,37.39
2023-05-25T15:30:57.629Z,37.00
2023-05-25T15:33:35.724Z,36.19
2023-05-25T15:36:10.617Z,34.68
2023-05-25T15:38:37.192Z,36.66
2023-05-25T15:41:03.817Z,36.12
2023-05-25T15:43:30.559Z,37.21
2023-05-25T15:45:57.314Z,36.09
2023-05-25T15:48:26.206Z,36.62
2023-05-25T15:50:53.075Z,35.64
2023-05-25T15:53:19.609Z,36.10
2023-05-25T15:55:46.638Z,36.30
2023-05-25T15:58:13.329Z,35.86
2023-05-25T16:00:39.995Z,36.39
2023-05-25T16:03:06.617Z,36.00
2023-05-25T16:05:33.330Z,37.05
2023-05-25T16:07:59.890Z,36.05
2023-05-25T16:10:26.511Z,36.15
2023-05-25T16:12:53.122Z,36.57
2023-05-25T16:15:19.772Z,37.58
2023-05-25T16:17:46.294Z,36.98
2023-05-25T16:20:12.900Z,35.76
2023-05-25T16:22:39.498Z,36.88
2023-05-25T16:25:06.582Z,36.14
2023-05-25T16:27:33.268Z,35.36
2023-05-25T16:29:59.855Z,36.28
2023-05-25T16:32:29.712Z,34.73
2023-05-25T16:34:56.332Z,34.78
2023-05-25T16:37:22.867Z,35.45
2023-05-25T16:39:49.440Z,35.49
2023-05-25T16:42:16.187Z,35.25
2023-05-25T16:44:42.786Z,35.55
2023-05-25T16:47:09.292Z,35.79
2023-05-25T16:49:35.918Z,34.91
2023-05-25T16:52:02.629Z,35.26
2023-05-25T16:54:29.514Z,35.85
2023-05-25T16:56:56.093Z,35.12
2023-05-25T16:59:22.642Z,34.67
2023-05-25T17:01:49.240Z,36.00
2023-05-25T17:04:15.851Z,35.86
2023-05-25T17:06:42.359Z,35.33
2023-05-25T17:09:09.089Z,34.29
2023-05-25T17:11:35.634Z,34.41
2023-05-25T17:14:02.176Z,34.39
2023-05-25T17:16:28.882Z,34.39
2023-05-25T17:18:55.591Z,34.19
2023-05-25T17:21:22.181Z,33.74
2023-05-25T17:23:49.204Z,33.79
2023-05-25T17:26:15.831Z,34.66
2023-05-25T17:28:42.425Z,35.05
2023-05-25T17:31:09.502Z,34.36
2023-05-25T17:33:36.271Z,34.17
2023-05-25T17:36:02.802Z,35.70
2023-05-25T17:38:29.418Z,35.46
2023-05-25T17:40:56.060Z,34.97
2023-05-25T17:43:22.727Z,34.76
2023-05-25T17:45:49.272Z,34.92
2023-05-25T17:48:15.969Z,35.03
2023-05-25T17:50:42.573Z,34.94
2023-05-25T17:57:47.425Z,34.81
2023-05-25T18:00:15.359Z,34.99
2023-05-25T18:02:42.218Z,34.93
2023-05-25T18:05:09.016Z,35.43
2023-05-25T18:07:35.628Z,34.96
2023-05-25T18:10:02.262Z,35.18
2023-05-25T18:12:28.848Z,36.03
2023-05-25T18:14:55.498Z,35.62
2023-05-25T18:17:22.075Z,36.42
2023-05-25T18:19:48.676Z,36.13
2023-05-25T18:22:15.300Z,37.02
2023-05-25T18:24:41.912Z,37.14
2023-05-25T18:27:08.579Z,37.86
2023-05-25T18:29:35.374Z,37.20
2023-05-25T18:32:01.952Z,37.06
2023-05-25T18:34:30.207Z,37.80
2023-05-25T18:36:56.765Z,37.57
2023-05-25T18:39:23.338Z,37.97
2023-05-25T18:41:49.966Z,38.42
2023-05-25T18:44:16.585Z,37.73
2023-05-25T18:46:44.848Z,38.09
2023-05-25T18:49:11.570Z,38.25
2023-05-25T18:51:38.214Z,37.78
2023-05-25T18:57:57.368Z,37.95
2023-05-25T19:00:24.835Z,37.91
2023-05-25T19:02:51.868Z,37.84
2023-05-25T19:05:20.064Z,37.80
2023-05-25T19:10:16.947Z,39.03
2023-05-25T19:12:43.659Z,38.68
2023-05-25T19:15:10.638Z,38.90
2023-05-25T19:17:37.196Z,38.60
2023-05-25T19:20:04.035Z,39.00
2023-05-25T19:22:30.771Z,39.28
2023-05-25T19:25:00.703Z,39.28
2023-05-25T19:27:27.838Z,39.06
2023-05-25T19:29:54.471Z,40.03
2023-05-25T19:32:21.083Z,39.82
2023-05-25T19:34:47.897Z,39.58
2023-05-25T19:37:14.587Z,39.67
2023-05-25T19:39:41.478Z,39.27
2023-05-25T19:42:09.377Z,39.40
2023-05-25T19:44:35.972Z,39.99
2023-05-25T19:47:02.640Z,40.10
2023-05-25T19:49:29.268Z,40.05
2023-05-25T19:51:55.921Z,40.82
2023-05-25T19:54:22.548Z,40.08
2023-05-25T19:56:49.508Z,39.43
2023-05-25T19:59:16.554Z,40.85
2023-05-25T20:01:43.537Z,41.00
2023-05-25T20:04:10.239Z,40.95
2023-05-25T20:06:37.415Z,40.65
2023-05-25T20:09:04.467Z,40.85
2023-05-25T20:11:31.098Z,41.16
2023-05-25T20:13:57.724Z,41.21
2023-05-25T20:16:25.842Z,40.62
2023-05-25T20:18:52.530Z,41.07
2023-05-25T20:21:20.061Z,41.19
2023-05-25T20:23:46.816Z,41.25
2023-05-25T20:26:13.466Z,41.17
2023-05-25T20:28:40.107Z,41.30
2023-05-25T20:31:06.886Z,40.12
2023-05-25T20:33:33.456Z,39.52
2023-05-25T20:36:00.172Z,39.47
2023-05-25T20:38:26.712Z,39.51
2023-05-25T20:40:53.391Z,39.62
2023-05-25T20:43:20.001Z,39.44
2023-05-25T20:45:46.968Z,38.98
2023-05-25T20:48:14.973Z,39.01
2023-05-25T20:50:41.597Z,38.95
2023-05-25T20:53:08.186Z,39.12
2023-05-25T20:55:34.856Z,38.89
2023-05-25T20:58:01.407Z,39.04
2023-05-25T21:00:27.984Z,38.47
2023-05-25T21:02:54.555Z,39.22
2023-05-25T21:05:21.187Z,38.50
2023-05-25T21:07:47.705Z,38.60
2023-05-25T21:10:14.309Z,38.41
2023-05-25T21:12:41.525Z,38.21
2023-05-25T21:15:08.542Z,38.80
2023-05-25T21:17:35.076Z,39.59
2023-05-25T21:20:01.830Z,39.36
2023-05-25T21:22:28.429Z,39.87
2023-05-25T21:24:55.074Z,39.36
2023-05-25T21:27:21.663Z,39.91
2023-05-25T21:29:48.268Z,40.20
2023-05-25T21:32:15.013Z,39.34
2023-05-25T21:34:42.190Z,39.70
2023-05-25T21:37:08.719Z,39.67
2023-05-25T21:39:35.277Z,39.85
2023-05-25T21:42:02.278Z,39.70
2023-05-25T21:44:28.901Z,40.12
2023-05-25T21:46:55.466Z,39.50
2023-05-25T21:49:22.088Z,39.81
2023-05-25T21:51:48.589Z,40.11
2023-05-25T21:54:15.899Z,40.32
2023-05-25T21:56:42.493Z,40.14
2023-05-25T21:59:09.172Z,40.14
2023-05-25T22:01:36.083Z,40.08
2023-05-25T22:04:02.724Z,40.44
2023-05-25T22:06:29.667Z,40.19
2023-05-25T22:08:56.222Z,40.45
2023-05-25T22:11:22.862Z,40.19
2023-05-25T22:13:49.502Z,39.83
2023-05-25T22:16:16.067Z,39.63
2023-05-25T22:18:42.817Z,40.25
2023-05-25T22:21:09.391Z,40.21
2023-05-25T22:23:35.982Z,40.08
2023-05-25T22:26:02.685Z,40.62
2023-05-25T22:28:29.274Z,40.13
2023-05-25T22:30:56.000Z,40.40
2023-05-25T22:33:22.659Z,40.85
2023-05-25T22:35:49.222Z,40.67
2023-05-25T22:38:15.835Z,40.69
2023-05-25T22:40:47.197Z,41.27
2023-05-25T22:43:14.633Z,40.92
2023-05-25T22:45:41.607Z,41.09
2023-05-25T22:48:08.906Z,41.73
2023-05-25T22:50:35.520Z,41.29
2023-05-25T22:53:02.284Z,40.92
2023-05-25T22:55:28.837Z,41.47
2023-05-25T22:57:55.841Z,41.02
2023-05-25T23:00:22.999Z,40.72
2023-05-25T23:02:49.780Z,40.91
2023-05-25T23:05:16.440Z,40.88
2023-05-25T23:07:43.698Z,40.72
2023-05-25T23:10:10.824Z,41.17
2023-05-25T23:12:37.515Z,41.47
2023-05-25T23:15:04.772Z,40.89
2023-05-25T23:17:32.489Z,41.87
2023-05-25T23:19:59.106Z,41.60
2023-05-25T23:22:25.952Z,41.05
2023-05-25T23:24:52.510Z,41.62
2023-05-25T23:27:19.166Z,40.78
2023-05-25T23:29:45.819Z,41.08
2023-05-25T23:32:12.480Z,40.88
2023-05-25T23:34:39.012Z,41.07
2023-05-25T23:37:06.530Z,40.77
2023-05-25T23:39:33.382Z,41.03
2023-05-25T23:42:00.105Z,41.41
2023-05-25T23:44:26.652Z,41.80
2023-05-25T23:46:53.326Z,41.60
2023-05-25T23:49:20.003Z,41.42
2023-05-25T23:51:46.709Z,41.48
2023-05-25T23:54:13.338Z,41.15
2023-05-25T23:56:39.917Z,41.37
2023-05-25T23:59:06.522Z,40.66
